sensor_id;sensor_type;location;lat;lon;timestamp;pressure;altitude;pressure_sealevel;temperature;humidity
72587;BME280;60621;49.576;11.024;2023-04-20T00:00:19;98406.25;;;4.97;62.53
72587;BME280;60621;49.576;11.024;2023-04-20T00:01:22;98404.13;;;4.99;62.94
72587;BME280;60621;49.576;11.024;2023-04-20T00:02:23;98404.56;;;5.01;62.61
72587;BME280;60621;49.576;11.024;2023-04-20T00:03:25;98406.06;;;4.73;62.76
72587;BME280;60621;49.576;11.024;2023-04-20T00:04:28;98405.50;;;4.50;64.57
72587;BME280;60621;49.576;11.024;2023-04-20T00:05:30;98406.59;;;4.40;64.56
72587;BME280;60621;49.576;11.024;2023-04-20T00:06:34;98405.50;;;4.41;63.60
72587;BME280;60621;49.576;11.024;2023-04-20T00:07:36;98401.53;;;4.35;63.48
72587;BME280;60621;49.576;11.024;2023-04-20T00:08:37;98395.22;;;4.36;64.55
72587;BME280;60621;49.576;11.024;2023-04-20T00:09:39;98398.16;;;4.34;63.99
72587;BME280;60621;49.576;11.024;2023-04-20T00:10:40;98399.84;;;4.22;64.91
72587;BME280;60621;49.576;11.024;2023-04-20T00:11:42;98403.38;;;4.34;64.73
72587;BME280;60621;49.576;11.024;2023-04-20T00:12:43;98402.75;;;4.38;64.06
72587;BME280;60621;49.576;11.024;2023-04-20T00:13:45;98403.38;;;4.43;64.09
72587;BME280;60621;49.576;11.024;2023-04-20T00:14:46;98401.03;;;4.50;64.21
72587;BME280;60621;49.576;11.024;2023-04-20T00:15:48;98388.59;;;4.56;63.79
72587;BME280;60621;49.576;11.024;2023-04-20T00:16:49;98397.19;;;4.56;63.64
72587;BME280;60621;49.576;11.024;2023-04-20T00:17:51;98391.97;;;4.56;63.90
72587;BME280;60621;49.576;11.024;2023-04-20T00:18:54;98384.72;;;4.62;64.18
72587;BME280;60621;49.576;11.024;2023-04-20T00:19:56;98384.88;;;4.66;63.45
72587;BME280;60621;49.576;11.024;2023-04-20T00:20:57;98387.47;;;4.66;63.22
72587;BME280;60621;49.576;11.024;2023-04-20T00:21:59;98395.38;;;4.48;64.16
72587;BME280;60621;49.576;11.024;2023-04-20T00:23:01;98391.81;;;4.53;63.88
72587;BME280;60621;49.576;11.024;2023-04-20T00:24:03;98384.59;;;4.50;64.40
72587;BME280;60621;49.576;11.024;2023-04-20T00:25:04;98386.75;;;4.56;64.50
72587;BME280;60621;49.576;11.024;2023-04-20T00:26:06;98379.81;;;4.60;63.93
72587;BME280;60621;49.576;11.024;2023-04-20T00:27:08;98376.56;;;4.63;64.04
72587;BME280;60621;49.576;11.024;2023-04-20T00:28:09;98374.41;;;4.66;64.23
72587;BME280;60621;49.576;11.024;2023-04-20T00:29:11;98368.41;;;4.65;63.47
72587;BME280;60621;49.576;11.024;2023-04-20T00:30:13;98377.53;;;4.50;63.79
72587;BME280;60621;49.576;11.024;2023-04-20T00:31:15;98370.16;;;4.52;63.54
72587;BME280;60621;49.576;11.024;2023-04-20T00:32:16;98367.69;;;4.56;63.67
72587;BME280;60621;49.576;11.024;2023-04-20T00:33:18;98372.13;;;4.55;63.28
72587;BME280;60621;49.576;11.024;2023-04-20T00:34:19;98366.59;;;4.57;63.89
72587;BME280;60621;49.576;11.024;2023-04-20T00:35:21;98365.97;;;4.60;63.49
72587;BME280;60621;49.576;11.024;2023-04-20T00:36:23;98361.22;;;4.62;63.77
72587;BME280;60621;49.576;11.024;2023-04-20T00:37:24;98359.69;;;4.61;63.19
72587;BME280;60621;49.576;11.024;2023-04-20T00:38:26;98353.97;;;4.59;63.72
72587;BME280;60621;49.576;11.024;2023-04-20T00:39:30;98355.38;;;4.56;63.67
72587;BME280;60621;49.576;11.024;2023-04-20T00:40:32;98357.25;;;4.56;63.32
72587;BME280;60621;49.576;11.024;2023-04-20T00:41:34;98358.13;;;4.60;63.56
72587;BME280;60621;49.576;11.024;2023-04-20T00:42:36;98362.41;;;4.65;63.02
72587;BME280;60621;49.576;11.024;2023-04-20T00:43:48;98362.47;;;4.56;63.30
72587;BME280;60621;49.576;11.024;2023-04-20T00:44:49;98362.31;;;4.52;63.08
72587;BME280;60621;49.576;11.024;2023-04-20T00:45:51;98360.34;;;4.41;63.71
72587;BME280;60621;49.576;11.024;2023-04-20T00:46:53;98355.28;;;4.35;63.78
72587;BME280;60621;49.576;11.024;2023-04-20T00:47:56;98362.50;;;4.30;64.83
72587;BME280;60621;49.576;11.024;2023-04-20T00:48:59;98357.91;;;4.27;64.36
72587;BME280;60621;49.576;11.024;2023-04-20T00:50:00;98358.41;;;4.20;65.00
72587;BME280;60621;49.576;11.024;2023-04-20T00:51:02;98361.59;;;4.17;64.93
72587;BME280;60621;49.576;11.024;2023-04-20T00:52:04;98361.00;;;4.11;65.27
72587;BME280;60621;49.576;11.024;2023-04-20T00:53:06;98353.50;;;4.19;64.63
72587;BME280;60621;49.576;11.024;2023-04-20T00:54:08;98349.03;;;4.28;65.17
72587;BME280;60621;49.576;11.024;2023-04-20T00:55:10;98352.84;;;4.22;64.79
72587;BME280;60621;49.576;11.024;2023-04-20T00:56:12;98355.16;;;4.23;64.85
72587;BME280;60621;49.576;11.024;2023-04-20T00:57:18;98354.69;;;4.21;64.96
72587;BME280;60621;49.576;11.024;2023-04-20T00:58:20;98350.88;;;4.10;65.68
72587;BME280;60621;49.576;11.024;2023-04-20T00:59:23;98348.13;;;3.98;66.09
72587;BME280;60621;49.576;11.024;2023-04-20T01:00:26;98352.25;;;4.07;65.88
72587;BME280;60621;49.576;11.024;2023-04-20T01:01:31;98345.50;;;4.06;65.53
72587;BME280;60621;49.576;11.024;2023-04-20T01:02:32;98342.91;;;4.06;65.32
72587;BME280;60621;49.576;11.024;2023-04-20T01:03:34;98343.97;;;4.14;65.39
72587;BME280;60621;49.576;11.024;2023-04-20T01:04:37;98338.59;;;4.19;64.80
72587;BME280;60621;49.576;11.024;2023-04-20T01:05:40;98342.56;;;4.17;65.59
72587;BME280;60621;49.576;11.024;2023-04-20T01:06:41;98327.06;;;4.20;64.52
72587;BME280;60621;49.576;11.024;2023-04-20T01:07:43;98322.00;;;4.24;65.00
72587;BME280;60621;49.576;11.024;2023-04-20T01:08:49;98324.75;;;4.27;65.60
72587;BME280;60621;49.576;11.024;2023-04-20T01:09:51;98327.38;;;4.27;65.24
72587;BME280;60621;49.576;11.024;2023-04-20T01:10:53;98333.97;;;4.16;65.52
72587;BME280;60621;49.576;11.024;2023-04-20T01:11:55;98321.69;;;4.17;64.90
72587;BME280;60621;49.576;11.024;2023-04-20T01:12:57;98324.94;;;4.14;65.47
72587;BME280;60621;49.576;11.024;2023-04-20T01:13:59;98323.53;;;4.16;65.45
72587;BME280;60621;49.576;11.024;2023-04-20T01:15:02;98320.31;;;4.10;65.73
72587;BME280;60621;49.576;11.024;2023-04-20T01:16:06;98324.63;;;4.15;65.35
72587;BME280;60621;49.576;11.024;2023-04-20T01:17:08;98325.88;;;4.09;64.88
72587;BME280;60621;49.576;11.024;2023-04-20T01:18:10;98320.81;;;3.95;64.87
72587;BME280;60621;49.576;11.024;2023-04-20T01:19:12;98320.50;;;3.97;65.15
72587;BME280;60621;49.576;11.024;2023-04-20T01:20:14;98328.94;;;4.02;65.54
72587;BME280;60621;49.576;11.024;2023-04-20T01:21:18;98317.13;;;3.96;65.22
72587;BME280;60621;49.576;11.024;2023-04-20T01:22:20;98316.81;;;3.98;65.45
72587;BME280;60621;49.576;11.024;2023-04-20T01:23:21;98321.09;;;3.94;65.88
72587;BME280;60621;49.576;11.024;2023-04-20T01:24:23;98318.06;;;3.92;65.96
72587;BME280;60621;49.576;11.024;2023-04-20T01:25:25;98316.84;;;3.80;65.64
72587;BME280;60621;49.576;11.024;2023-04-20T01:26:26;98320.06;;;3.69;66.60
72587;BME280;60621;49.576;11.024;2023-04-20T01:27:28;98319.59;;;3.58;66.56
72587;BME280;60621;49.576;11.024;2023-04-20T01:28:29;98314.25;;;3.72;66.67
72587;BME280;60621;49.576;11.024;2023-04-20T01:29:31;98318.38;;;3.81;65.82
72587;BME280;60621;49.576;11.024;2023-04-20T01:30:34;98314.84;;;3.86;66.26
72587;BME280;60621;49.576;11.024;2023-04-20T01:31:35;98311.47;;;3.94;66.15
72587;BME280;60621;49.576;11.024;2023-04-20T01:32:37;98317.72;;;4.02;65.60
72587;BME280;60621;49.576;11.024;2023-04-20T01:33:40;98308.19;;;4.06;65.64
72587;BME280;60621;49.576;11.024;2023-04-20T01:34:41;98312.97;;;4.04;65.67
72587;BME280;60621;49.576;11.024;2023-04-20T01:35:43;98314.34;;;4.10;65.52
72587;BME280;60621;49.576;11.024;2023-04-20T01:36:44;98305.16;;;4.04;65.68
72587;BME280;60621;49.576;11.024;2023-04-20T01:37:46;98314.03;;;4.03;65.73
72587;BME280;60621;49.576;11.024;2023-04-20T01:38:48;98303.41;;;4.08;65.97
72587;BME280;60621;49.576;11.024;2023-04-20T01:39:49;98305.09;;;4.13;65.30
72587;BME280;60621;49.576;11.024;2023-04-20T01:40:52;98308.63;;;4.17;65.10
72587;BME280;60621;49.576;11.024;2023-04-20T01:41:54;98302.50;;;4.13;65.34
72587;BME280;60621;49.576;11.024;2023-04-20T01:42:56;98312.03;;;4.08;65.00
72587;BME280;60621;49.576;11.024;2023-04-20T01:43:57;98311.41;;;4.03;65.62
72587;BME280;60621;49.576;11.024;2023-04-20T01:44:59;98307.28;;;4.02;65.54
72587;BME280;60621;49.576;11.024;2023-04-20T01:46:00;98315.44;;;4.00;64.75
72587;BME280;60621;49.576;11.024;2023-04-20T01:47:02;98305.91;;;4.04;65.63
72587;BME280;60621;49.576;11.024;2023-04-20T01:48:05;98304.66;;;4.10;65.06
72587;BME280;60621;49.576;11.024;2023-04-20T01:49:07;98314.94;;;4.07;64.40
72587;BME280;60621;49.576;11.024;2023-04-20T01:50:09;98308.34;;;4.09;64.56
72587;BME280;60621;49.576;11.024;2023-04-20T01:51:10;98317.41;;;4.03;65.09
72587;BME280;60621;49.576;11.024;2023-04-20T01:52:12;98310.22;;;3.92;65.64
72587;BME280;60621;49.576;11.024;2023-04-20T01:53:14;98320.81;;;3.95;66.00
72587;BME280;60621;49.576;11.024;2023-04-20T01:54:15;98321.41;;;4.01;65.98
72587;BME280;60621;49.576;11.024;2023-04-20T01:55:17;98311.41;;;4.03;66.05
72587;BME280;60621;49.576;11.024;2023-04-20T01:56:20;98315.72;;;4.07;66.24
72587;BME280;60621;49.576;11.024;2023-04-20T01:57:22;98308.97;;;4.06;65.94
72587;BME280;60621;49.576;11.024;2023-04-20T01:58:23;98303.91;;;4.10;65.99
72587;BME280;60621;49.576;11.024;2023-04-20T01:59:25;98305.91;;;4.13;66.29
72587;BME280;60621;49.576;11.024;2023-04-20T02:00:26;98301.88;;;4.16;66.45
72587;BME280;60621;49.576;11.024;2023-04-20T02:01:28;98301.88;;;4.16;66.84
72587;BME280;60621;49.576;11.024;2023-04-20T02:02:30;98308.19;;;4.15;67.32
72587;BME280;60621;49.576;11.024;2023-04-20T02:03:31;98305.41;;;4.20;66.96
72587;BME280;60621;49.576;11.024;2023-04-20T02:04:34;98302.19;;;4.23;66.70
72587;BME280;60621;49.576;11.024;2023-04-20T02:05:35;98305.56;;;4.23;66.91
72587;BME280;60621;49.576;11.024;2023-04-20T02:06:37;98297.72;;;4.23;67.54
72587;BME280;60621;49.576;11.024;2023-04-20T02:07:38;98304.31;;;4.21;66.86
72587;BME280;60621;49.576;11.024;2023-04-20T02:08:40;98301.56;;;4.17;67.64
72587;BME280;60621;49.576;11.024;2023-04-20T02:09:41;98303.88;;;4.19;67.60
72587;BME280;60621;49.576;11.024;2023-04-20T02:10:43;98305.09;;;4.21;67.40
72587;BME280;60621;49.576;11.024;2023-04-20T02:11:45;98299.41;;;4.28;67.07
72587;BME280;60621;49.576;11.024;2023-04-20T02:12:48;98300.75;;;4.34;67.69
72587;BME280;60621;49.576;11.024;2023-04-20T02:13:50;98299.81;;;4.39;67.43
72587;BME280;60621;49.576;11.024;2023-04-20T02:14:51;98299.34;;;4.36;67.07
72587;BME280;60621;49.576;11.024;2023-04-20T02:15:53;98299.66;;;4.35;67.30
72587;BME280;60621;49.576;11.024;2023-04-20T02:16:55;98298.16;;;4.34;67.19
72587;BME280;60621;49.576;11.024;2023-04-20T02:17:57;98296.75;;;4.36;67.68
72587;BME280;60621;49.576;11.024;2023-04-20T02:18:59;98293.38;;;4.36;67.86
72587;BME280;60621;49.576;11.024;2023-04-20T02:20:02;98298.16;;;4.34;68.01
72587;BME280;60621;49.576;11.024;2023-04-20T02:21:07;98288.28;;;4.40;67.42
72587;BME280;60621;49.576;11.024;2023-04-20T02:22:08;98287.03;;;4.46;67.25
72587;BME280;60621;49.576;11.024;2023-04-20T02:23:10;98291.97;;;4.47;66.48
72587;BME280;60621;49.576;11.024;2023-04-20T02:24:12;98291.19;;;4.47;66.79
72587;BME280;60621;49.576;11.024;2023-04-20T02:25:13;98294.41;;;4.44;67.15
72587;BME280;60621;49.576;11.024;2023-04-20T02:26:15;98292.13;;;4.42;67.02
72587;BME280;60621;49.576;11.024;2023-04-20T02:27:17;98290.13;;;4.39;67.35
72587;BME280;60621;49.576;11.024;2023-04-20T02:28:18;98281.69;;;4.42;66.90
72587;BME280;60621;49.576;11.024;2023-04-20T02:29:20;98287.97;;;4.41;66.70
72587;BME280;60621;49.576;11.024;2023-04-20T02:30:21;98289.06;;;4.40;67.09
72587;BME280;60621;49.576;11.024;2023-04-20T02:31:23;98292.31;;;4.37;67.17
72587;BME280;60621;49.576;11.024;2023-04-20T02:32:25;98287.38;;;4.35;67.20
72587;BME280;60621;49.576;11.024;2023-04-20T02:33:26;98288.44;;;4.43;67.55
72587;BME280;60621;49.576;11.024;2023-04-20T02:34:28;98288.75;;;4.42;67.25
72587;BME280;60621;49.576;11.024;2023-04-20T02:35:30;98281.53;;;4.39;67.50
72587;BME280;60621;49.576;11.024;2023-04-20T02:36:31;98288.13;;;4.36;66.98
72587;BME280;60621;49.576;11.024;2023-04-20T02:37:33;98286.63;;;4.26;66.68
72587;BME280;60621;49.576;11.024;2023-04-20T02:38:35;98282.97;;;4.27;67.30
72587;BME280;60621;49.576;11.024;2023-04-20T02:39:38;98281.72;;;4.33;66.89
72587;BME280;60621;49.576;11.024;2023-04-20T02:40:39;98281.25;;;4.31;67.35
72587;BME280;60621;49.576;11.024;2023-04-20T02:41:41;98287.13;;;4.20;66.86
72587;BME280;60621;49.576;11.024;2023-04-20T02:42:42;98287.16;;;4.11;67.08
72587;BME280;60621;49.576;11.024;2023-04-20T02:43:44;98294.06;;;4.07;67.62
72587;BME280;60621;49.576;11.024;2023-04-20T02:44:46;98280.84;;;4.03;67.41
72587;BME280;60621;49.576;11.024;2023-04-20T02:45:47;98287.91;;;4.11;67.41
72587;BME280;60621;49.576;11.024;2023-04-20T02:46:49;98284.56;;;3.94;67.23
72587;BME280;60621;49.576;11.024;2023-04-20T02:47:50;98281.66;;;3.95;68.21
72587;BME280;60621;49.576;11.024;2023-04-20T02:48:52;98283.78;;;4.02;67.65
72587;BME280;60621;49.576;11.024;2023-04-20T02:49:55;98280.41;;;4.01;67.58
72587;BME280;60621;49.576;11.024;2023-04-20T02:50:57;98286.88;;;4.04;67.75
72587;BME280;60621;49.576;11.024;2023-04-20T02:51:58;98282.25;;;4.01;67.16
72587;BME280;60621;49.576;11.024;2023-04-20T02:53:00;98282.59;;;3.91;67.60
72587;BME280;60621;49.576;11.024;2023-04-20T02:54:01;98280.44;;;3.93;67.28
72587;BME280;60621;49.576;11.024;2023-04-20T02:55:04;98283.34;;;3.91;67.68
72587;BME280;60621;49.576;11.024;2023-04-20T02:56:06;98275.97;;;3.93;67.16
72587;BME280;60621;49.576;11.024;2023-04-20T02:57:07;98278.00;;;3.88;68.39
72587;BME280;60621;49.576;11.024;2023-04-20T02:58:11;98284.63;;;3.76;68.64
72587;BME280;60621;49.576;11.024;2023-04-20T02:59:13;98276.16;;;3.79;67.71
72587;BME280;60621;49.576;11.024;2023-04-20T03:00:14;98269.72;;;3.85;68.10
72587;BME280;60621;49.576;11.024;2023-04-20T03:01:16;98268.63;;;3.87;68.03
72587;BME280;60621;49.576;11.024;2023-04-20T03:02:18;98262.00;;;3.89;68.13
72587;BME280;60621;49.576;11.024;2023-04-20T03:03:20;98269.84;;;3.89;68.24
72587;BME280;60621;49.576;11.024;2023-04-20T03:04:22;98265.41;;;3.81;68.01
72587;BME280;60621;49.576;11.024;2023-04-20T03:05:23;98269.25;;;3.83;68.76
72587;BME280;60621;49.576;11.024;2023-04-20T03:06:25;98265.25;;;3.86;68.27
72587;BME280;60621;49.576;11.024;2023-04-20T03:07:27;98261.25;;;3.89;68.02
72587;BME280;60621;49.576;11.024;2023-04-20T03:08:29;98263.72;;;3.85;68.52
72587;BME280;60621;49.576;11.024;2023-04-20T03:09:30;98261.25;;;3.89;68.26
72587;BME280;60621;49.576;11.024;2023-04-20T03:10:32;98264.00;;;3.92;68.05
72587;BME280;60621;49.576;11.024;2023-04-20T03:11:33;98268.63;;;3.95;67.83
72587;BME280;60621;49.576;11.024;2023-04-20T03:12:35;98260.63;;;3.92;67.90
72587;BME280;60621;49.576;11.024;2023-04-20T03:13:37;98264.19;;;3.87;68.18
72587;BME280;60621;49.576;11.024;2023-04-20T03:14:38;98264.50;;;3.85;68.65
72587;BME280;60621;49.576;11.024;2023-04-20T03:15:40;98266.03;;;3.87;68.30
72587;BME280;60621;49.576;11.024;2023-04-20T03:16:41;98260.81;;;3.87;68.34
72587;BME280;60621;49.576;11.024;2023-04-20T03:17:43;98254.81;;;3.86;68.20
72587;BME280;60621;49.576;11.024;2023-04-20T03:18:45;98260.97;;;3.73;68.53
72587;BME280;60621;49.576;11.024;2023-04-20T03:19:47;98254.38;;;3.75;68.92
72587;BME280;60621;49.576;11.024;2023-04-20T03:20:48;98254.22;;;3.80;68.73
72587;BME280;60621;49.576;11.024;2023-04-20T03:21:50;98261.13;;;3.85;68.60
72587;BME280;60621;49.576;11.024;2023-04-20T03:22:51;98260.47;;;3.88;67.98
72587;BME280;60621;49.576;11.024;2023-04-20T03:23:53;98256.50;;;3.82;68.46
72587;BME280;60621;49.576;11.024;2023-04-20T03:24:55;98258.19;;;3.87;68.18
72587;BME280;60621;49.576;11.024;2023-04-20T03:25:57;98256.50;;;3.91;68.31
72587;BME280;60621;49.576;11.024;2023-04-20T03:26:58;98253.13;;;3.90;68.22
72587;BME280;60621;49.576;11.024;2023-04-20T03:28:00;98246.50;;;3.93;68.20
72587;BME280;60621;49.576;11.024;2023-04-20T03:29:02;98256.00;;;3.97;68.44
72587;BME280;60621;49.576;11.024;2023-04-20T03:30:04;98251.56;;;3.98;67.61
72587;BME280;60621;49.576;11.024;2023-04-20T03:31:06;98253.41;;;3.97;67.63
72587;BME280;60621;49.576;11.024;2023-04-20T03:32:07;98247.13;;;3.90;67.79
72587;BME280;60621;49.576;11.024;2023-04-20T03:33:09;98250.03;;;3.88;68.51
72587;BME280;60621;49.576;11.024;2023-04-20T03:34:11;98251.28;;;3.82;68.28
72587;BME280;60621;49.576;11.024;2023-04-20T03:35:12;98242.06;;;3.84;68.50
72587;BME280;60621;49.576;11.024;2023-04-20T03:36:14;98249.88;;;3.84;68.33
72587;BME280;60621;49.576;11.024;2023-04-20T03:37:15;98251.44;;;3.85;67.97
72587;BME280;60621;49.576;11.024;2023-04-20T03:38:17;98249.88;;;3.84;67.82
72587;BME280;60621;49.576;11.024;2023-04-20T03:39:19;98251.13;;;3.87;68.39
72587;BME280;60621;49.576;11.024;2023-04-20T03:40:20;98253.75;;;3.78;68.00
72587;BME280;60621;49.576;11.024;2023-04-20T03:41:22;98254.53;;;3.70;68.00
72587;BME280;60621;49.576;11.024;2023-04-20T03:42:24;98258.38;;;3.73;68.37
72587;BME280;60621;49.576;11.024;2023-04-20T03:43:26;98252.81;;;3.74;67.47
72587;BME280;60621;49.576;11.024;2023-04-20T03:44:27;98257.13;;;3.70;67.90
72587;BME280;60621;49.576;11.024;2023-04-20T03:45:29;98255.00;;;3.72;68.20
72587;BME280;60621;49.576;11.024;2023-04-20T03:46:31;98270.16;;;3.70;67.96
72587;BME280;60621;49.576;11.024;2023-04-20T03:47:32;98260.69;;;3.66;68.12
72587;BME280;60621;49.576;11.024;2023-04-20T03:48:34;98264.06;;;3.57;68.27
72587;BME280;60621;49.576;11.024;2023-04-20T03:49:36;98259.63;;;3.49;68.29
72587;BME280;60621;49.576;11.024;2023-04-20T03:50:37;98266.84;;;3.44;68.95
72587;BME280;60621;49.576;11.024;2023-04-20T03:51:39;98262.06;;;3.46;68.84
72587;BME280;60621;49.576;11.024;2023-04-20T03:52:40;98265.31;;;3.43;68.29
72587;BME280;60621;49.576;11.024;2023-04-20T03:53:42;98265.44;;;3.46;68.58
72587;BME280;60621;49.576;11.024;2023-04-20T03:54:43;98268.53;;;3.48;69.02
72587;BME280;60621;49.576;11.024;2023-04-20T03:55:45;98264.22;;;3.52;69.08
72587;BME280;60621;49.576;11.024;2023-04-20T03:56:47;98263.44;;;3.60;69.12
72587;BME280;60621;49.576;11.024;2023-04-20T03:57:49;98255.47;;;3.66;68.68
72587;BME280;60621;49.576;11.024;2023-04-20T03:58:51;98259.91;;;3.65;67.97
72587;BME280;60621;49.576;11.024;2023-04-20T03:59:53;98250.25;;;3.66;68.52
72587;BME280;60621;49.576;11.024;2023-04-20T04:01:02;98246.25;;;3.68;68.91
72587;BME280;60621;49.576;11.024;2023-04-20T04:02:04;98242.56;;;3.69;69.34
72587;BME280;60621;49.576;11.024;2023-04-20T04:03:06;98249.00;;;3.72;69.08
72587;BME280;60621;49.576;11.024;2023-04-20T04:04:08;98244.25;;;3.74;68.97
72587;BME280;60621;49.576;11.024;2023-04-20T04:05:10;98248.53;;;3.78;68.78
72587;BME280;60621;49.576;11.024;2023-04-20T04:06:12;98242.53;;;3.78;69.16
72587;BME280;60621;49.576;11.024;2023-04-20T04:07:13;98247.16;;;3.81;69.32
72587;BME280;60621;49.576;11.024;2023-04-20T04:08:15;98253.59;;;3.83;69.56
72587;BME280;60621;49.576;11.024;2023-04-20T04:09:16;98248.84;;;3.85;69.08
72587;BME280;60621;49.576;11.024;2023-04-20T04:10:18;98253.31;;;3.68;69.07
72587;BME280;60621;49.576;11.024;2023-04-20T04:11:20;98245.75;;;3.75;68.42
72587;BME280;60621;49.576;11.024;2023-04-20T04:12:21;98248.09;;;3.76;68.47
72587;BME280;60621;49.576;11.024;2023-04-20T04:13:23;98250.84;;;3.80;68.55
72587;BME280;60621;49.576;11.024;2023-04-20T04:14:25;98244.22;;;3.82;68.65
72587;BME280;60621;49.576;11.024;2023-04-20T04:15:26;98250.06;;;3.79;68.31
72587;BME280;60621;49.576;11.024;2023-04-20T04:16:28;98244.72;;;3.76;68.76
72587;BME280;60621;49.576;11.024;2023-04-20T04:17:30;98245.31;;;3.81;69.15
72587;BME280;60621;49.576;11.024;2023-04-20T04:18:32;98243.16;;;3.83;68.78
72587;BME280;60621;49.576;11.024;2023-04-20T04:19:34;98244.66;;;3.84;69.35
72587;BME280;60621;49.576;11.024;2023-04-20T04:20:36;98253.41;;;3.89;68.80
72587;BME280;60621;49.576;11.024;2023-04-20T04:21:37;98247.59;;;3.92;68.42
72587;BME280;60621;49.576;11.024;2023-04-20T04:22:39;98243.47;;;3.73;69.19
72587;BME280;60621;49.576;11.024;2023-04-20T04:23:41;98243.94;;;3.75;68.76
72587;BME280;60621;49.576;11.024;2023-04-20T04:24:43;98241.19;;;3.72;68.28
72587;BME280;60621;49.576;11.024;2023-04-20T04:25:45;98238.72;;;3.75;69.01
72587;BME280;60621;49.576;11.024;2023-04-20T04:26:47;98244.38;;;3.77;68.47
72587;BME280;60621;49.576;11.024;2023-04-20T04:27:49;98246.56;;;3.75;68.87
72587;BME280;60621;49.576;11.024;2023-04-20T04:28:51;98245.00;;;3.74;69.58
72587;BME280;60621;49.576;11.024;2023-04-20T04:29:53;98242.38;;;3.74;68.98
72587;BME280;60621;49.576;11.024;2023-04-20T04:30:57;98251.47;;;3.77;69.04
72587;BME280;60621;49.576;11.024;2023-04-20T04:31:58;98246.41;;;3.72;68.76
72587;BME280;60621;49.576;11.024;2023-04-20T04:33:00;98245.81;;;3.66;69.45
72587;BME280;60621;49.576;11.024;2023-04-20T04:34:05;98244.13;;;3.62;69.93
72587;BME280;60621;49.576;11.024;2023-04-20T04:35:07;98244.09;;;3.70;69.61
72587;BME280;60621;49.576;11.024;2023-04-20T04:36:09;98241.78;;;3.77;69.67
72587;BME280;60621;49.576;11.024;2023-04-20T04:37:11;98246.84;;;3.74;68.95
72587;BME280;60621;49.576;11.024;2023-04-20T04:38:12;98247.31;;;3.76;69.47
72587;BME280;60621;49.576;11.024;2023-04-20T04:39:14;98245.63;;;3.80;68.90
72587;BME280;60621;49.576;11.024;2023-04-20T04:40:16;98239.78;;;3.83;68.98
72587;BME280;60621;49.576;11.024;2023-04-20T04:41:18;98239.31;;;3.81;69.26
72587;BME280;60621;49.576;11.024;2023-04-20T04:42:20;98235.78;;;3.85;69.20
72587;BME280;60621;49.576;11.024;2023-04-20T04:43:22;98244.06;;;3.88;69.28
72587;BME280;60621;49.576;11.024;2023-04-20T04:44:24;98245.91;;;3.87;68.88
72587;BME280;60621;49.576;11.024;2023-04-20T04:45:29;98233.63;;;3.88;69.28
72587;BME280;60621;49.576;11.024;2023-04-20T04:46:30;98237.59;;;3.94;69.17
72587;BME280;60621;49.576;11.024;2023-04-20T04:47:33;98243.28;;;3.96;69.62
72587;BME280;60621;49.576;11.024;2023-04-20T04:48:36;98241.44;;;3.96;70.01
72587;BME280;60621;49.576;11.024;2023-04-20T04:49:38;98240.50;;;4.01;69.31
72587;BME280;60621;49.576;11.024;2023-04-20T04:50:41;98238.47;;;4.06;68.95
72587;BME280;60621;49.576;11.024;2023-04-20T04:51:42;98241.69;;;4.12;68.98
72587;BME280;60621;49.576;11.024;2023-04-20T04:52:44;98235.41;;;4.13;68.83
72587;BME280;60621;49.576;11.024;2023-04-20T04:53:46;98240.31;;;4.15;69.46
72587;BME280;60621;49.576;11.024;2023-04-20T04:54:49;98232.16;;;4.16;69.22
72587;BME280;60621;49.576;11.024;2023-04-20T04:55:51;98238.13;;;4.17;69.43
72587;BME280;60621;49.576;11.024;2023-04-20T04:56:53;98242.28;;;4.18;69.44
72587;BME280;60621;49.576;11.024;2023-04-20T04:57:55;98237.06;;;4.18;69.29
72587;BME280;60621;49.576;11.024;2023-04-20T04:58:57;98234.44;;;4.18;69.19
72587;BME280;60621;49.576;11.024;2023-04-20T04:59:59;98237.84;;;4.18;69.56
72587;BME280;60621;49.576;11.024;2023-04-20T05:01:00;98236.44;;;4.21;70.23
72587;BME280;60621;49.576;11.024;2023-04-20T05:02:02;98238.44;;;4.24;69.49
72587;BME280;60621;49.576;11.024;2023-04-20T05:03:04;98237.34;;;4.25;69.63
72587;BME280;60621;49.576;11.024;2023-04-20T05:04:05;98239.34;;;4.28;69.75
72587;BME280;60621;49.576;11.024;2023-04-20T05:05:07;98243.28;;;4.34;69.92
72587;BME280;60621;49.576;11.024;2023-04-20T05:06:10;98234.84;;;4.37;70.03
72587;BME280;60621;49.576;11.024;2023-04-20T05:07:12;98233.59;;;4.43;69.36
72587;BME280;60621;49.576;11.024;2023-04-20T05:08:17;98236.97;;;4.44;69.67
72587;BME280;60621;49.576;11.024;2023-04-20T05:09:19;98234.94;;;4.49;69.48
72587;BME280;60621;49.576;11.024;2023-04-20T05:10:21;98231.69;;;4.52;69.68
72587;BME280;60621;49.576;11.024;2023-04-20T05:11:22;98235.66;;;4.58;69.46
72587;BME280;60621;49.576;11.024;2023-04-20T05:12:24;98230.94;;;4.52;69.09
72587;BME280;60621;49.576;11.024;2023-04-20T05:13:26;98227.22;;;4.53;69.42
72587;BME280;60621;49.576;11.024;2023-04-20T05:14:29;98233.81;;;4.59;69.26
72587;BME280;60621;49.576;11.024;2023-04-20T05:15:30;98228.38;;;4.64;69.33
72587;BME280;60621;49.576;11.024;2023-04-20T05:16:32;98242.50;;;4.72;68.97
72587;BME280;60621;49.576;11.024;2023-04-20T05:17:34;98231.44;;;4.75;69.21
72587;BME280;60621;49.576;11.024;2023-04-20T05:18:35;98230.44;;;4.79;69.14
72587;BME280;60621;49.576;11.024;2023-04-20T05:19:37;98238.63;;;4.78;68.99
72587;BME280;60621;49.576;11.024;2023-04-20T05:20:38;98238.28;;;4.79;68.99
72587;BME280;60621;49.576;11.024;2023-04-20T05:21:40;98242.13;;;4.82;69.14
72587;BME280;60621;49.576;11.024;2023-04-20T05:22:42;98245.50;;;4.82;69.69
72587;BME280;60621;49.576;11.024;2023-04-20T05:23:43;98243.78;;;4.86;69.42
72587;BME280;60621;49.576;11.024;2023-04-20T05:24:45;98240.84;;;4.88;69.34
72587;BME280;60621;49.576;11.024;2023-04-20T05:25:46;98240.84;;;4.88;69.45
72587;BME280;60621;49.576;11.024;2023-04-20T05:26:48;98247.13;;;4.96;69.58
72587;BME280;60621;49.576;11.024;2023-04-20T05:27:50;98243.41;;;4.97;69.31